createdAt,value
2023-01-18T00:01:22.274Z,93.80
2023-01-18T00:03:50.435Z,93.78
2023-01-18T00:06:18.661Z,93.55
2023-01-18T00:08:46.820Z,94.61
2023-01-18T00:11:17.148Z,94.27
2023-01-18T00:13:45.642Z,95.05
2023-01-18T00:16:16.234Z,95.40
2023-01-18T00:18:50.866Z,94.97
2023-01-18T00:21:19.020Z,95.08
2023-01-18T00:23:47.064Z,95.09
2023-01-18T00:26:15.330Z,95.23
2023-01-18T00:28:43.670Z,95.33
2023-01-18T00:31:16.847Z,94.77
2023-01-18T00:33:49.907Z,94.43
2023-01-18T00:36:18.777Z,94.26
2023-01-18T00:38:52.148Z,94.06
2023-01-18T00:41:21.817Z,94.51
2023-01-18T00:43:54.051Z,94.70
2023-01-18T00:46:27.356Z,94.63
2023-01-18T00:48:57.340Z,94.18
2023-01-18T00:51:25.681Z,94.29
2023-01-18T00:53:54.021Z,94.82
2023-01-18T00:56:23.300Z,94.21
2023-01-18T00:58:51.545Z,93.09
2023-01-18T01:01:19.941Z,93.63
2023-01-18T01:04:06.892Z,94.08
2023-01-18T01:06:45.166Z,94.63
2023-01-18T01:09:20.168Z,94.54
2023-01-18T01:12:07.716Z,95.17
2023-01-18T01:14:58.555Z,95.66
2023-01-18T01:17:47.992Z,96.21
2023-01-18T01:20:35.130Z,96.14
2023-01-18T01:23:33.897Z,96.95
2023-01-18T01:26:06.408Z,96.33
2023-01-18T01:28:41.813Z,96.57
2023-01-18T01:31:14.557Z,96.42
2023-01-18T01:33:43.312Z,96.55
2023-01-18T01:36:15.881Z,96.31
2023-01-18T01:38:44.456Z,96.78
2023-01-18T01:41:25.452Z,96.80
2023-01-18T01:43:58.773Z,96.83
2023-01-18T01:46:59.774Z,96.82
2023-01-18T01:49:40.226Z,96.62
2023-01-18T01:52:11.344Z,96.51
2023-01-18T01:54:45.628Z,96.40
2023-01-18T01:57:16.243Z,96.08
2023-01-18T01:59:52.340Z,95.75
2023-01-18T02:02:20.726Z,95.82
2023-01-18T02:04:53.913Z,95.71
2023-01-18T02:07:23.699Z,96.02
2023-01-18T02:09:53.788Z,95.95
2023-01-18T02:12:27.184Z,96.46
2023-01-18T02:15:00.277Z,96.58
2023-01-18T02:17:47.229Z,96.67
2023-01-18T02:20:55.800Z,95.89
2023-01-18T02:23:46.667Z,97.33
2023-01-18T02:26:54.303Z,97.30
2023-01-18T02:29:26.954Z,97.11
2023-01-18T02:32:00.969Z,97.09
2023-01-18T02:34:38.767Z,97.30
2023-01-18T02:37:48.734Z,96.64
2023-01-18T02:40:23.065Z,96.81
2023-01-18T02:43:14.223Z,97.18
2023-01-18T02:46:07.699Z,97.25
2023-01-18T02:48:39.197Z,98.07
2023-01-18T02:51:10.888Z,97.94
2023-01-18T02:53:43.292Z,97.60
2023-01-18T02:56:17.075Z,97.41
2023-01-18T02:58:49.477Z,97.42
2023-01-18T03:01:27.214Z,97.59
2023-01-18T03:04:01.592Z,97.60
2023-01-18T03:06:30.221Z,97.35
2023-01-18T03:09:03.282Z,97.17
2023-01-18T03:11:45.704Z,97.28
2023-01-18T03:14:32.753Z,97.43
2023-01-18T03:17:12.111Z,97.61
2023-01-18T03:20:09.593Z,97.92
2023-01-18T03:23:02.357Z,98.57
2023-01-18T03:25:37.863Z,99.07
2023-01-18T03:28:29.607Z,99.04
2023-01-18T03:31:19.812Z,99.14
2023-01-18T03:33:59.367Z,100.00
2023-01-18T03:36:32.279Z,100.00
2023-01-18T03:39:05.368Z,100.00
2023-01-18T03:41:39.354Z,100.00
2023-01-18T03:44:29.640Z,100.00
2023-01-18T03:46:58.180Z,100.00
2023-01-18T03:49:27.611Z,100.00
2023-01-18T03:52:20.029Z,100.00
2023-01-18T03:55:02.406Z,99.92
2023-01-18T03:57:38.779Z,99.73
2023-01-18T04:00:09.427Z,99.93
2023-01-18T04:02:45.252Z,99.52
2023-01-18T04:05:13.717Z,99.21
2023-01-18T04:07:42.412Z,98.90
2023-01-18T04:10:11.481Z,98.96
2023-01-18T04:12:39.775Z,99.51
2023-01-18T04:15:08.327Z,99.53
2023-01-18T04:17:36.431Z,99.74
2023-01-18T04:20:04.942Z,99.95
2023-01-18T04:22:33.241Z,100.00
2023-01-18T04:25:01.517Z,100.00
2023-01-18T04:27:29.688Z,99.99
2023-01-18T04:29:58.728Z,100.00
2023-01-18T04:32:28.934Z,100.00
2023-01-18T04:34:57.413Z,99.84
2023-01-18T04:37:31.134Z,100.00
2023-01-18T04:39:59.273Z,99.08
2023-01-18T04:42:30.574Z,99.25
2023-01-18T04:44:59.995Z,99.20
2023-01-18T04:47:29.195Z,98.76
2023-01-18T04:50:01.098Z,98.61
2023-01-18T04:52:32.367Z,99.77
2023-01-18T04:55:00.496Z,99.99
2023-01-18T04:57:29.040Z,100.00
2023-01-18T04:59:57.314Z,99.91
2023-01-18T05:02:25.488Z,99.95
2023-01-18T05:04:53.851Z,100.00
2023-01-18T05:07:25.284Z,99.89
2023-01-18T05:09:58.549Z,99.70
2023-01-18T05:12:28.584Z,99.09
2023-01-18T05:14:57.142Z,99.31
2023-01-18T05:17:30.506Z,99.20
2023-01-18T05:19:58.623Z,99.33
2023-01-18T05:22:28.236Z,99.51
2023-01-18T05:24:56.383Z,99.61
2023-01-18T05:27:24.750Z,99.85
2023-01-18T05:29:52.916Z,99.55
2023-01-18T05:32:20.985Z,99.47
2023-01-18T05:34:49.635Z,99.67
2023-01-18T05:37:20.231Z,99.82
2023-01-18T05:39:48.424Z,99.47
2023-01-18T05:42:19.890Z,99.46
2023-01-18T05:44:47.964Z,99.98
2023-01-18T05:47:16.245Z,100.00
2023-01-18T05:49:44.267Z,100.00
2023-01-18T05:52:15.139Z,100.00
2023-01-18T05:54:46.152Z,100.00
2023-01-18T05:57:14.543Z,100.00
2023-01-18T05:59:42.755Z,100.00
2023-01-18T06:02:11.154Z,100.00
2023-01-18T06:04:39.472Z,100.00
2023-01-18T06:07:09.414Z,100.00
2023-01-18T06:09:37.793Z,100.00
2023-01-18T06:12:06.339Z,100.00
2023-01-18T06:14:34.536Z,100.00
2023-01-18T06:17:02.822Z,100.00
2023-01-18T06:19:33.371Z,100.00
2023-01-18T06:22:04.592Z,100.00
2023-01-18T06:24:32.829Z,100.00
2023-01-18T06:27:03.198Z,100.00
2023-01-18T06:29:31.520Z,100.00
2023-01-18T06:31:59.747Z,100.00
2023-01-18T06:34:30.195Z,100.00
2023-01-18T06:36:58.670Z,100.00
2023-01-18T06:39:26.742Z,100.00
2023-01-18T06:41:55.166Z,100.00
2023-01-18T06:44:23.485Z,100.00
2023-01-18T06:46:52.276Z,100.00
2023-01-18T06:49:20.414Z,100.00
2023-01-18T06:51:51.425Z,100.00
2023-01-18T06:54:21.780Z,100.00
2023-01-18T06:56:49.869Z,100.00
2023-01-18T06:59:18.132Z,100.00
2023-01-18T07:01:47.031Z,100.00
2023-01-18T07:04:18.370Z,100.00
2023-01-18T07:06:46.698Z,99.92
2023-01-18T07:09:14.982Z,99.76
2023-01-18T07:11:43.368Z,99.91
2023-01-18T07:14:12.452Z,99.81
2023-01-18T07:16:41.292Z,99.73
2023-01-18T07:19:09.820Z,99.95
2023-01-18T07:21:41.211Z,100.00
2023-01-18T07:24:09.436Z,100.00
2023-01-18T07:26:37.705Z,100.00
2023-01-18T07:29:06.006Z,100.00
2023-01-18T07:31:34.124Z,100.00
2023-01-18T07:34:02.478Z,100.00
2023-01-18T07:36:30.661Z,100.00
2023-01-18T07:39:01.275Z,100.00
2023-01-18T07:41:31.005Z,100.00
2023-01-18T07:43:59.925Z,100.00
2023-01-18T07:46:28.181Z,100.00
2023-01-18T07:48:58.951Z,100.00
2023-01-18T07:51:30.727Z,100.00
2023-01-18T07:53:58.969Z,100.00
2023-01-18T07:56:27.308Z,100.00
2023-01-18T07:58:55.849Z,99.99
2023-01-18T08:01:24.421Z,99.98
2023-01-18T08:03:54.786Z,100.00
2023-01-18T08:06:25.304Z,99.77
2023-01-18T08:08:57.225Z,99.73
2023-01-18T08:11:25.757Z,99.50
2023-01-18T08:13:53.953Z,99.49
2023-01-18T08:16:22.333Z,99.39
2023-01-18T08:18:51.501Z,99.09
2023-01-18T08:21:19.615Z,99.56
2023-01-18T08:23:47.722Z,99.72
2023-01-18T08:26:16.070Z,99.19
2023-01-18T08:28:44.903Z,99.24
2023-01-18T08:31:19.759Z,99.68
2023-01-18T08:33:50.021Z,99.98
2023-01-18T08:36:21.081Z,99.98
2023-01-18T08:38:55.351Z,100.00
2023-01-18T08:41:28.481Z,100.00
2023-01-18T08:43:58.442Z,100.00
2023-01-18T08:46:26.627Z,100.00
2023-01-18T08:48:57.879Z,100.00
2023-01-18T08:51:26.232Z,100.00
2023-01-18T08:53:56.723Z,100.00
2023-01-18T08:56:31.335Z,100.00
2023-01-18T08:59:00.199Z,100.00
2023-01-18T09:01:31.001Z,100.00
2023-01-18T09:03:59.233Z,100.00
2023-01-18T09:06:32.144Z,100.00
2023-01-18T09:09:01.257Z,100.00
2023-01-18T09:11:29.319Z,100.00
2023-01-18T09:14:02.204Z,99.96
2023-01-18T09:16:31.839Z,100.00
2023-01-18T09:19:06.353Z,100.00
2023-01-18T09:21:34.881Z,99.82
2023-01-18T09:24:03.028Z,99.39
2023-01-18T09:26:31.292Z,99.23
2023-01-18T09:28:59.655Z,98.48
2023-01-18T09:31:28.699Z,98.09
2023-01-18T09:34:09.583Z,98.15
2023-01-18T09:36:46.528Z,97.98
2023-01-18T09:39:14.739Z,97.68
2023-01-18T09:41:47.017Z,97.70
2023-01-18T09:44:25.098Z,97.65
2023-01-18T09:47:03.109Z,97.48
2023-01-18T09:50:06.027Z,97.46
2023-01-18T09:53:04.277Z,97.60
2023-01-18T09:55:46.451Z,97.71
2023-01-18T09:58:27.147Z,97.77
2023-01-18T10:01:05.604Z,97.87
2023-01-18T10:04:06.666Z,98.01
2023-01-18T10:06:46.922Z,98.12
2023-01-18T10:09:18.300Z,98.13
2023-01-18T10:11:51.168Z,98.23
2023-01-18T10:14:38.528Z,98.22
2023-01-18T10:17:21.242Z,98.31
2023-01-18T10:19:50.961Z,97.85
2023-01-18T10:22:25.730Z,98.02
2023-01-18T10:25:14.705Z,98.29
2023-01-18T10:28:04.378Z,98.20
2023-01-18T10:31:04.094Z,97.87
2023-01-18T10:33:41.012Z,97.80
2023-01-18T10:36:12.482Z,98.02
2023-01-18T10:38:41.434Z,97.94
2023-01-18T10:41:20.216Z,97.94
2023-01-18T10:43:50.544Z,98.05
2023-01-18T10:46:21.772Z,96.92
2023-01-18T10:48:52.481Z,98.17
2023-01-18T10:51:35.296Z,98.65
2023-01-18T10:54:25.880Z,98.50
2023-01-18T10:57:05.705Z,98.44
2023-01-18T10:59:39.970Z,98.44
2023-01-18T11:02:23.585Z,98.42
2023-01-18T11:04:57.577Z,98.08
2023-01-18T11:07:28.016Z,97.22
2023-01-18T11:09:59.573Z,95.04
2023-01-18T11:12:44.368Z,93.33
2023-01-18T11:15:15.400Z,93.64
2023-01-18T11:18:00.837Z,94.03
2023-01-18T11:20:41.031Z,90.96
2023-01-18T11:23:14.889Z,88.77
2023-01-18T11:26:00.839Z,87.40
2023-01-18T11:29:06.683Z,86.23
2023-01-18T11:31:48.579Z,86.18
2023-01-18T11:34:32.214Z,86.45
2023-01-18T11:37:01.548Z,87.24
2023-01-18T11:39:35.423Z,88.06
2023-01-18T11:42:31.826Z,85.76
2023-01-18T11:45:23.725Z,84.91
2023-01-18T11:47:51.958Z,83.26
2023-01-18T11:50:38.522Z,81.77
2023-01-18T11:53:30.918Z,81.43
2023-01-18T11:56:06.819Z,81.72
2023-01-18T11:58:36.148Z,81.63
2023-01-18T12:01:25.914Z,82.10
2023-01-18T12:04:13.969Z,82.21
2023-01-18T12:06:54.776Z,83.35
2023-01-18T12:09:25.680Z,84.57
2023-01-18T12:12:17.348Z,84.84
2023-01-18T12:15:04.811Z,84.48
2023-01-18T12:18:07.786Z,86.64
2023-01-18T12:21:09.314Z,87.45
2023-01-18T12:23:57.488Z,89.74
2023-01-18T12:26:45.826Z,89.65
2023-01-18T12:29:49.056Z,90.65
2023-01-18T12:32:50.424Z,91.03
2023-01-18T12:35:32.497Z,91.70
2023-01-18T12:38:13.649Z,92.07
2023-01-18T12:41:11.246Z,92.51
2023-01-18T12:44:00.515Z,94.17
2023-01-18T12:46:34.540Z,94.30
2023-01-18T12:49:19.073Z,93.98
2023-01-18T12:51:54.296Z,95.33
2023-01-18T12:54:43.318Z,95.47
2023-01-18T12:57:13.833Z,94.71
2023-01-18T12:59:47.655Z,94.36
2023-01-18T13:02:35.293Z,94.66
2023-01-18T13:05:33.937Z,94.90
2023-01-18T13:08:16.990Z,94.69
2023-01-18T13:10:46.200Z,94.85
2023-01-18T13:13:28.961Z,95.52
2023-01-18T13:16:10.141Z,96.20
2023-01-18T13:19:03.801Z,95.63
2023-01-18T13:21:38.594Z,95.57
2023-01-18T13:24:41.463Z,95.09
2023-01-18T13:27:12.836Z,94.97
2023-01-18T13:29:42.791Z,94.94
2023-01-18T13:32:37.941Z,94.40
2023-01-18T13:35:25.841Z,94.30
2023-01-18T13:38:02.160Z,94.31
2023-01-18T13:40:43.837Z,94.01
2023-01-18T13:43:32.841Z,94.07
2023-01-18T13:46:10.359Z,93.84
2023-01-18T13:48:51.067Z,94.14
2023-01-18T13:51:39.716Z,94.30
2023-01-18T13:54:15.431Z,94.24
2023-01-18T13:57:24.694Z,94.37
2023-01-18T13:59:58.637Z,94.48
2023-01-18T14:02:34.487Z,94.45
2023-01-18T14:05:32.297Z,94.09
2023-01-18T14:08:02.479Z,94.33
2023-01-18T14:10:36.625Z,94.14
2023-01-18T14:13:14.233Z,94.12
2023-01-18T14:15:53.922Z,93.69
2023-01-18T14:18:25.288Z,93.91
2023-01-18T14:21:19.677Z,93.82
2023-01-18T14:24:09.221Z,93.78
2023-01-18T14:26:40.282Z,93.90
2023-01-18T14:29:33.960Z,93.67
2023-01-18T14:32:08.143Z,93.73
2023-01-18T14:34:44.854Z,93.84
2023-01-18T14:37:33.792Z,94.02
2023-01-18T14:40:04.512Z,93.77
2023-01-18T14:42:35.043Z,93.36
2023-01-18T14:45:04.867Z,94.04
2023-01-18T14:47:34.692Z,94.05
2023-01-18T14:50:07.706Z,94.29
2023-01-18T14:52:37.369Z,94.54
2023-01-18T14:55:07.446Z,94.40
2023-01-18T14:57:35.668Z,94.44
2023-01-18T15:00:24.978Z,94.59
2023-01-18T15:02:53.887Z,94.55
2023-01-18T15:05:29.097Z,94.60
2023-01-18T15:07:59.361Z,94.71
2023-01-18T15:10:27.749Z,94.95
2023-01-18T15:12:59.134Z,94.92
2023-01-18T15:15:33.317Z,94.91
2023-01-18T15:18:15.488Z,94.79
2023-01-18T15:20:57.316Z,94.62
2023-01-18T15:23:27.162Z,94.48
2023-01-18T15:25:56.751Z,94.48
2023-01-18T15:28:36.477Z,94.17
2023-01-18T15:31:16.258Z,94.12
2023-01-18T15:33:44.940Z,93.93
2023-01-18T15:36:14.191Z,94.35
2023-01-18T15:38:42.447Z,94.60
2023-01-18T15:41:14.849Z,94.62
2023-01-18T15:43:44.982Z,94.06
2023-01-18T15:46:16.228Z,94.55
2023-01-18T15:48:51.627Z,94.58
2023-01-18T15:51:43.302Z,94.75
2023-01-18T15:54:19.405Z,95.15
2023-01-18T15:56:48.684Z,94.38
2023-01-18T15:59:22.862Z,95.31
2023-01-18T16:02:13.673Z,95.20
2023-01-18T16:04:42.138Z,95.19
2023-01-18T16:07:25.907Z,95.03
2023-01-18T16:10:31.196Z,94.85
2023-01-18T16:13:36.831Z,94.85
2023-01-18T16:16:14.097Z,95.07
2023-01-18T16:19:07.489Z,94.99
2023-01-18T16:21:42.722Z,94.91
2023-01-18T16:24:26.432Z,94.69
2023-01-18T16:26:55.448Z,94.35
2023-01-18T16:29:23.752Z,94.67
2023-01-18T16:31:52.099Z,94.74
2023-01-18T16:34:24.211Z,94.85
2023-01-18T16:36:54.760Z,94.96
2023-01-18T16:39:24.576Z,94.98
2023-01-18T16:41:57.385Z,95.13
2023-01-18T16:44:26.244Z,95.29
2023-01-18T16:46:54.491Z,95.38
2023-01-18T16:49:22.597Z,95.20
2023-01-18T16:51:50.774Z,95.02
2023-01-18T16:54:19.606Z,95.30
2023-01-18T16:56:48.714Z,94.89
2023-01-18T16:59:45.028Z,94.20
2023-01-18T17:02:55.374Z,94.24
2023-01-18T17:05:23.561Z,93.76
2023-01-18T17:07:54.688Z,94.35
2023-01-18T17:10:40.610Z,94.60
2023-01-18T17:13:08.855Z,95.53
2023-01-18T17:15:41.488Z,95.37
2023-01-18T17:18:27.957Z,95.45
2023-01-18T17:20:56.494Z,95.83
2023-01-18T17:23:25.778Z,96.04
2023-01-18T17:26:00.599Z,96.03
2023-01-18T17:28:32.630Z,96.73
2023-01-18T17:31:01.517Z,96.60
2023-01-18T17:33:30.702Z,96.84
2023-01-18T17:35:59.198Z,96.60
2023-01-18T17:40:58.936Z,97.00
2023-01-18T17:43:34.947Z,96.94
2023-01-18T17:46:07.143Z,97.43
2023-01-18T17:48:35.482Z,97.30
2023-01-18T17:51:12.063Z,97.52
2023-01-18T17:53:41.413Z,97.56
2023-01-18T17:56:18.937Z,97.68
2023-01-18T17:58:49.319Z,97.20
2023-01-18T18:01:18.541Z,96.87
2023-01-18T18:03:51.354Z,96.99
2023-01-18T18:06:30.546Z,96.82
2023-01-18T18:09:03.639Z,96.83
2023-01-18T18:11:35.074Z,96.92
2023-01-18T18:14:03.314Z,96.92
2023-01-18T18:16:32.811Z,96.79
2023-01-18T18:19:09.085Z,96.91
2023-01-18T18:21:37.290Z,97.14
2023-01-18T18:24:05.716Z,97.16
2023-01-18T18:26:34.524Z,96.57
2023-01-18T18:29:03.186Z,96.36
2023-01-18T18:31:31.781Z,96.25
2023-01-18T18:34:00.439Z,96.96
2023-01-18T18:36:28.819Z,96.87
2023-01-18T18:39:01.461Z,96.68
2023-01-18T18:41:29.804Z,97.01
2023-01-18T18:43:57.954Z,97.06
2023-01-18T18:46:31.335Z,96.99
2023-01-18T18:48:59.593Z,97.17
2023-01-18T18:51:27.929Z,97.25
2023-01-18T18:53:56.575Z,96.78
2023-01-18T18:56:24.958Z,96.54
2023-01-18T18:58:53.280Z,96.50
2023-01-18T19:01:29.766Z,96.46
2023-01-18T19:03:59.097Z,96.08
2023-01-18T19:06:27.899Z,95.92
2023-01-18T19:08:57.337Z,96.10
2023-01-18T19:11:31.196Z,96.09
2023-01-18T19:13:59.557Z,96.11
2023-01-18T19:16:27.895Z,95.99
2023-01-18T19:18:56.065Z,96.22
2023-01-18T19:21:24.227Z,96.55
2023-01-18T19:23:52.321Z,96.31
2023-01-18T19:26:23.210Z,96.31
2023-01-18T19:28:51.896Z,95.55
2023-01-18T19:31:20.085Z,96.00
2023-01-18T19:33:48.355Z,96.51
2023-01-18T19:36:16.921Z,96.71
2023-01-18T19:38:52.678Z,97.26
2023-01-18T19:41:25.949Z,97.95
2023-01-18T19:43:54.124Z,97.69
2023-01-18T19:46:22.458Z,96.93
2023-01-18T19:48:56.192Z,97.49
2023-01-18T19:51:24.323Z,97.67
2023-01-18T19:53:53.631Z,97.70
2023-01-18T19:56:25.774Z,97.32
2023-01-18T19:58:57.347Z,97.36
2023-01-18T20:01:36.276Z,97.20
2023-01-18T20:04:06.699Z,96.66
2023-01-18T20:06:37.555Z,96.88
2023-01-18T20:09:17.836Z,96.98
2023-01-18T20:11:47.310Z,96.78
2023-01-18T20:14:15.845Z,96.82
2023-01-18T20:16:46.175Z,96.65
2023-01-18T20:19:15.536Z,96.19
2023-01-18T20:21:43.746Z,96.05
2023-01-18T20:24:11.924Z,95.80
2023-01-18T20:26:41.726Z,95.75
2023-01-18T20:29:10.190Z,95.71
2023-01-18T20:31:39.404Z,95.12
2023-01-18T20:34:10.998Z,94.91
2023-01-18T20:36:39.127Z,94.88
2023-01-18T20:39:10.526Z,94.87
2023-01-18T20:41:38.732Z,95.09
2023-01-18T20:44:07.183Z,95.26
2023-01-18T20:46:35.747Z,95.34
2023-01-18T20:49:04.786Z,95.46
2023-01-18T20:51:33.616Z,95.34
2023-01-18T20:54:02.291Z,95.31
2023-01-18T20:56:32.022Z,95.16
2023-01-18T20:59:00.192Z,95.11
2023-01-18T21:01:37.415Z,94.78
2023-01-18T21:04:05.833Z,94.44
2023-01-18T21:06:34.420Z,94.17
2023-01-18T21:09:02.856Z,93.76
2023-01-18T21:11:31.820Z,93.87
2023-01-18T21:13:59.990Z,93.83
2023-01-18T21:16:28.418Z,93.82
2023-01-18T21:18:59.236Z,94.02
2023-01-18T21:21:31.998Z,93.89
2023-01-18T21:24:00.242Z,93.88
2023-01-18T21:26:29.107Z,93.77
2023-01-18T21:28:57.247Z,93.91
2023-01-18T21:31:25.294Z,93.72
2023-01-18T21:33:54.287Z,93.57
2023-01-18T21:36:23.180Z,93.64
2023-01-18T21:38:51.549Z,93.86
2023-01-18T21:41:38.404Z,94.09
2023-01-18T21:44:30.289Z,94.34
2023-01-18T21:47:01.659Z,94.48
2023-01-18T21:52:57.906Z,94.80
2023-01-18T21:55:29.228Z,94.87
2023-01-18T21:58:15.916Z,95.01
2023-01-18T22:00:44.161Z,95.15
2023-01-18T22:03:15.338Z,94.99
2023-01-18T22:05:46.724Z,95.02
2023-01-18T22:08:14.941Z,94.98
2023-01-18T22:10:47.655Z,94.91
2023-01-18T22:13:18.075Z,95.15
2023-01-18T22:15:49.145Z,94.89
2023-01-18T22:18:17.338Z,95.23
2023-01-18T22:20:55.227Z,95.17
2023-01-18T22:23:23.362Z,95.24
2023-01-18T22:25:55.390Z,94.89
2023-01-18T22:28:26.231Z,95.87
2023-01-18T22:30:54.666Z,96.09
2023-01-18T22:33:22.860Z,95.65
2023-01-18T22:35:57.444Z,95.82
2023-01-18T22:38:25.848Z,96.15
2023-01-18T22:41:13.951Z,96.18
2023-01-18T22:43:42.873Z,96.01
2023-01-18T22:46:14.220Z,96.07
2023-01-18T22:48:43.676Z,96.58
2023-01-18T22:51:17.246Z,96.69
2023-01-18T22:53:49.544Z,96.93
2023-01-18T22:56:20.879Z,97.12
2023-01-18T22:58:50.203Z,97.16
2023-01-18T23:01:27.142Z,97.25
2023-01-18T23:03:56.106Z,97.31
2023-01-18T23:06:24.626Z,97.31
2023-01-18T23:08:54.362Z,97.07
2023-01-18T23:11:25.311Z,97.02
2023-01-18T23:14:14.628Z,97.03
2023-01-18T23:17:02.735Z,97.10
2023-01-18T23:19:31.244Z,96.66
2023-01-18T23:21:59.915Z,96.57
2023-01-18T23:24:28.103Z,96.93
2023-01-18T23:26:56.281Z,96.78
2023-01-18T23:29:24.358Z,96.52
2023-01-18T23:31:52.463Z,95.84
2023-01-18T23:34:20.592Z,96.40
2023-01-18T23:36:51.246Z,96.80
2023-01-18T23:39:38.300Z,96.71
2023-01-18T23:42:25.036Z,96.28
2023-01-18T23:45:11.718Z,96.85
2023-01-18T23:47:59.411Z,96.14
2023-01-18T23:50:46.513Z,96.17
2023-01-18T23:53:33.275Z,96.76
2023-01-18T23:56:01.266Z,96.32
2023-01-18T23:58:29.453Z,96.89
